createdAt,value
2023-02-14T00:00:40.285Z,22.9
2023-02-14T00:04:41.162Z,27.27
2023-02-14T00:08:41.305Z,26.77
2023-02-14T00:12:40.557Z,30.23
2023-02-14T00:16:40.272Z,29.98
2023-02-14T00:20:40.392Z,30.27
2023-02-14T00:24:40.553Z,28.3
2023-02-14T00:28:41.090Z,27.8
2023-02-14T00:32:40.561Z,26.07
2023-02-14T00:36:40.335Z,24.85
2023-02-14T00:40:40.482Z,31.27
2023-02-14T00:44:40.885Z,33.63
2023-02-14T00:48:40.548Z,31.35
2023-02-14T00:52:40.827Z,25.62
2023-02-14T00:56:40.498Z,31.6
2023-02-14T01:00:40.615Z,33.7
2023-02-14T01:04:40.590Z,32.33
2023-02-14T01:08:40.485Z,35.87
2023-02-14T01:12:40.828Z,25.07
2023-02-14T01:16:41.290Z,35.37
2023-02-14T01:20:40.661Z,31.27
2023-02-14T01:24:40.440Z,32.63
2023-02-14T01:28:40.534Z,32.1
2023-02-14T01:32:40.350Z,28
2023-02-14T01:36:40.546Z,29.4
2023-02-14T01:40:40.465Z,33.73
2023-02-14T01:44:40.522Z,30.85
2023-02-14T01:48:41.010Z,33.77
2023-02-14T01:52:40.559Z,31.2
2023-02-14T01:56:39.556Z,38.13
2023-02-14T02:00:40.863Z,29.12
2023-02-14T02:04:40.653Z,32.77
2023-02-14T02:08:40.562Z,32.97
2023-02-14T02:12:40.506Z,26.17
2023-02-14T02:16:41.051Z,33.8
2023-02-14T02:20:39.990Z,35.27
2023-02-14T02:24:41.102Z,31.3
2023-02-14T02:28:40.675Z,38.37
2023-02-14T02:32:40.712Z,37.47
2023-02-14T02:36:40.513Z,31.2
2023-02-14T02:40:40.591Z,29.3
2023-02-14T02:44:40.525Z,29.03
2023-02-14T02:48:40.455Z,31.2
2023-02-14T02:52:41.267Z,31
2023-02-14T02:56:41.119Z,32.43
2023-02-14T03:00:40.660Z,35.47
2023-02-14T03:04:41.157Z,30.87
2023-02-14T03:08:41.235Z,32.08
2023-02-14T03:12:41.187Z,33
2023-02-14T03:16:41.195Z,31.23
2023-02-14T03:20:40.495Z,34.37
2023-02-14T03:24:40.497Z,30.9
2023-02-14T03:28:40.444Z,41.93
2023-02-14T03:32:40.044Z,32.33
2023-02-14T03:36:40.293Z,35.1
2023-02-14T03:40:40.706Z,35.17
2023-02-14T03:44:40.420Z,30.87
2023-02-14T03:48:41.016Z,30.97
2023-02-14T03:52:40.510Z,31.47
2023-02-14T03:56:40.610Z,32.67
2023-02-14T04:00:40.519Z,35.27
2023-02-14T04:04:40.925Z,27.2
2023-02-14T04:08:40.597Z,26.57
2023-02-14T04:12:40.459Z,31.07
2023-02-14T04:16:40.607Z,24.47
2023-02-14T04:20:40.557Z,26.3
2023-02-14T04:24:41.074Z,29.8
2023-02-14T04:28:40.311Z,30.93
2023-02-14T04:32:40.363Z,32.37
2023-02-14T04:36:40.675Z,28.07
2023-02-14T04:40:40.364Z,29.7
2023-02-14T04:44:40.293Z,31.27
2023-02-14T04:48:41.213Z,28.4
2023-02-14T04:52:40.696Z,28.87
2023-02-14T04:56:41.408Z,33.53
2023-02-14T05:00:40.740Z,30.77
2023-02-14T05:04:40.492Z,33.6
2023-02-14T05:08:40.542Z,28.17
2023-02-14T05:12:41.011Z,33.37
2023-02-14T05:16:40.374Z,34.73
2023-02-14T05:20:40.551Z,29.77
2023-02-14T05:24:40.455Z,28.97
2023-02-14T05:28:40.070Z,29.73
2023-02-14T05:32:40.426Z,36.13
2023-02-14T05:36:40.346Z,36.63
2023-02-14T05:40:40.575Z,29.83
2023-02-14T05:44:40.886Z,33.33
2023-02-14T05:48:40.548Z,30.1
2023-02-14T05:52:40.785Z,31.17
2023-02-14T05:56:40.581Z,32.5
2023-02-14T06:00:41.479Z,40.43
2023-02-14T06:04:39.550Z,33.67
2023-02-14T06:08:40.623Z,33.53
2023-02-14T06:12:40.764Z,33.57
2023-02-14T06:16:40.515Z,40.7
2023-02-14T06:20:40.443Z,34.93
2023-02-14T06:24:40.515Z,35.97
2023-02-14T06:28:40.657Z,30.33
2023-02-14T06:32:40.722Z,30.77
2023-02-14T06:36:40.487Z,32.57
2023-02-14T06:40:40.489Z,31.93
2023-02-14T06:44:40.549Z,35.03
2023-02-14T06:48:40.523Z,33.07
2023-02-14T06:52:40.773Z,37.07
2023-02-14T06:56:41.194Z,48.8
2023-02-14T07:00:40.954Z,40.57
2023-02-14T07:04:40.603Z,30.9
2023-02-14T07:08:40.523Z,31.13
2023-02-14T07:12:40.698Z,30.5
2023-02-14T07:16:40.374Z,30.77
2023-02-14T07:20:39.440Z,44.8
2023-02-14T07:24:40.664Z,35.73
2023-02-14T07:28:40.534Z,41.67
2023-02-14T07:32:40.570Z,30.4
2023-02-14T07:36:40.454Z,31.13
2023-02-14T07:40:40.433Z,32.1
2023-02-14T07:44:40.690Z,33.2
2023-02-14T07:48:40.533Z,29.9
2023-02-14T07:52:41.266Z,34.43
2023-02-14T07:56:40.355Z,32.9
2023-02-14T08:00:40.559Z,32.03
2023-02-14T08:04:40.630Z,26.53
2023-02-14T08:08:40.700Z,25.73
2023-02-14T08:12:40.700Z,27.13
2023-02-14T08:16:40.581Z,33.8
2023-02-14T08:20:40.611Z,31.8
2023-02-14T08:24:40.629Z,25.62
2023-02-14T08:28:40.516Z,31.8
2023-02-14T08:32:40.941Z,25.77
2023-02-14T08:36:40.550Z,34.85
2023-02-14T08:40:40.692Z,24.5
2023-02-14T08:44:40.800Z,30.3
2023-02-14T08:48:40.526Z,31.27
2023-02-14T08:52:40.742Z,46.23
2023-02-14T08:56:40.413Z,32.47
2023-02-14T09:00:40.789Z,38.7
2023-02-14T09:04:40.773Z,49.5
2023-02-14T09:08:40.586Z,30.73
2023-02-14T09:12:41.021Z,40.03
2023-02-14T09:16:40.614Z,29.63
2023-02-14T09:20:40.699Z,37.92
2023-02-14T09:24:39.884Z,34.1
2023-02-14T09:28:41.230Z,32.47
2023-02-14T09:32:40.913Z,32.6
2023-02-14T09:36:40.506Z,31.4
2023-02-14T09:40:40.608Z,31.27
2023-02-14T09:44:40.639Z,22.87
2023-02-14T09:48:40.449Z,30.33
2023-02-14T09:52:40.913Z,30.4
2023-02-14T09:56:50.684Z,32.13
2023-02-14T10:00:40.904Z,31.27
2023-02-14T10:04:40.579Z,27.98
2023-02-14T10:08:40.614Z,27.83
2023-02-14T10:12:40.279Z,26.2
2023-02-14T10:16:40.585Z,29.15
2023-02-14T10:20:40.452Z,25.95
2023-02-14T10:24:40.372Z,29.08
2023-02-14T10:28:40.595Z,31.6
2023-02-14T10:32:40.856Z,29.37
2023-02-14T10:36:40.327Z,30.12
2023-02-14T10:40:40.686Z,25.23
2023-02-14T10:44:40.769Z,29.63
2023-02-14T10:48:40.480Z,31.33
2023-02-14T10:52:41.033Z,25.6
2023-02-14T10:56:40.685Z,31.25
2023-02-14T11:00:40.641Z,26.9
2023-02-14T11:04:40.699Z,29.3
2023-02-14T11:08:40.532Z,29.87
2023-02-14T11:12:41.270Z,27.83
2023-02-14T11:16:40.471Z,38.08
2023-02-14T11:20:40.781Z,30.65
2023-02-14T11:24:40.996Z,26.42
2023-02-14T11:28:42.064Z,27.1
2023-02-14T11:32:41.037Z,28.4
2023-02-14T11:36:40.662Z,27.67
2023-02-14T11:40:41.202Z,28.25
2023-02-14T11:44:40.624Z,41.53
2023-02-14T11:48:40.716Z,29.05
2023-02-14T11:52:40.410Z,27.77
2023-02-14T11:56:40.741Z,29.52
2023-02-14T12:00:40.643Z,23.2
2023-02-14T12:04:46.105Z,25.65
2023-02-14T12:08:40.576Z,32
2023-02-14T12:12:40.512Z,34.88
2023-02-14T12:16:39.439Z,29.12
2023-02-14T12:20:40.655Z,28.65
2023-02-14T12:24:40.648Z,28.27
2023-02-14T12:28:40.644Z,26.27
2023-02-14T12:32:40.592Z,27.17
2023-02-14T12:36:40.329Z,33.92
2023-02-14T12:40:40.693Z,32.08
2023-02-14T12:44:40.670Z,28.87
2023-02-14T12:48:40.500Z,32.83
2023-02-14T12:52:40.602Z,34.22
2023-02-14T12:56:40.843Z,29.3
2023-02-14T13:00:40.625Z,27.05
2023-02-14T13:04:41.059Z,29.9
2023-02-14T13:08:40.477Z,32.1
2023-02-14T13:12:40.347Z,31.77
2023-02-14T13:16:40.756Z,35.33
2023-02-14T13:20:41.169Z,35.2
2023-02-14T13:24:40.904Z,36.97
2023-02-14T13:28:40.555Z,29.92
2023-02-14T13:32:40.834Z,28.52
2023-02-14T13:36:40.299Z,32.72
2023-02-14T13:40:40.665Z,34.9
2023-02-14T13:44:40.690Z,29.98
2023-02-14T13:48:40.686Z,31.15
2023-02-14T13:52:40.667Z,29.35
2023-02-14T13:56:41.014Z,31.48
2023-02-14T14:00:40.675Z,25.95
2023-02-14T14:04:40.444Z,28.87
2023-02-14T14:08:40.438Z,30.3
2023-02-14T14:12:40.529Z,37.58
2023-02-14T14:16:41.432Z,27.7
2023-02-14T14:20:40.582Z,26.92
2023-02-14T14:24:40.535Z,29.37
2023-02-14T14:28:40.720Z,28.55
2023-02-14T14:32:40.735Z,30.48
2023-02-14T14:36:41.250Z,28.12
2023-02-14T14:40:40.576Z,30.73
2023-02-14T14:44:40.287Z,27.92
2023-02-14T14:48:40.667Z,29.55
2023-02-14T14:52:40.565Z,32.13
2023-02-14T14:56:40.395Z,29.9
2023-02-14T15:00:40.681Z,32
2023-02-14T15:04:40.752Z,32.08
2023-02-14T15:08:40.536Z,30.45
2023-02-14T15:12:40.642Z,33.45
2023-02-14T15:16:40.399Z,37.75
2023-02-14T15:20:40.569Z,35.72
2023-02-14T15:24:40.689Z,48.85
2023-02-14T15:28:40.468Z,45.47
2023-02-14T15:32:40.477Z,50.17
2023-02-14T15:36:40.512Z,59.75
2023-02-14T15:40:40.366Z,57.38
2023-02-14T15:44:41.173Z,54.55
2023-02-14T15:48:39.759Z,58.7
2023-02-14T15:52:40.510Z,65.45
2023-02-14T15:56:40.564Z,67.67
2023-02-14T16:00:40.217Z,70.2
2023-02-14T16:04:40.278Z,66.07
2023-02-14T16:08:40.560Z,67.35
2023-02-14T16:12:40.474Z,65.1
2023-02-14T16:16:40.679Z,69.13
2023-02-14T16:20:40.507Z,77.03
2023-02-14T16:24:40.439Z,82
2023-02-14T16:28:42.464Z,75.5
2023-02-14T16:32:40.966Z,80.65
2023-02-14T16:36:40.513Z,71.82
2023-02-14T16:40:40.624Z,74.03
2023-02-14T16:44:40.600Z,63.75
2023-02-14T16:48:40.527Z,54.75
2023-02-14T16:52:40.984Z,53.1
2023-02-14T16:56:40.359Z,62.37
2023-02-14T17:00:40.791Z,60.8
2023-02-14T17:04:40.594Z,66.43
2023-02-14T17:08:40.455Z,72.8
2023-02-14T17:12:41.047Z,71.1
2023-02-14T17:16:40.608Z,72.3
2023-02-14T17:20:40.607Z,57.43
2023-02-14T17:24:40.479Z,85.37
2023-02-14T17:28:40.713Z,74.5
2023-02-14T17:32:40.819Z,63.17
2023-02-14T17:36:40.560Z,56.13
2023-02-14T17:40:40.486Z,46.47
2023-02-14T17:44:40.605Z,49.87
2023-02-14T17:48:40.532Z,52.33
2023-02-14T17:52:40.677Z,55.43
2023-02-14T17:56:41.128Z,54.07
2023-02-14T18:00:40.683Z,42.3
2023-02-14T18:04:40.670Z,35.6
2023-02-14T18:08:39.850Z,36.77
2023-02-14T18:12:39.636Z,36.2
2023-02-14T18:16:40.607Z,36.27
2023-02-14T18:20:40.453Z,34.4
2023-02-14T18:24:40.466Z,37.73
2023-02-14T18:28:40.576Z,42.93
2023-02-14T18:32:40.595Z,31.53
2023-02-14T18:36:39.603Z,40.2
2023-02-14T18:40:41.128Z,31.77
2023-02-14T18:44:40.487Z,39.43
2023-02-14T18:48:40.886Z,38.97
2023-02-14T18:52:40.586Z,41.97
2023-02-14T18:56:40.960Z,44.27
2023-02-14T19:00:40.576Z,36.5
2023-02-14T19:04:40.537Z,35.33
2023-02-14T19:08:40.511Z,44.5
2023-02-14T19:12:41.141Z,35.6
2023-02-14T19:16:41.313Z,40.23
2023-02-14T19:20:40.518Z,41.7
2023-02-14T19:24:40.627Z,40.23
2023-02-14T19:28:40.899Z,36.43
2023-02-14T19:32:41.183Z,40.23
2023-02-14T19:36:40.656Z,42.87
2023-02-14T19:40:40.588Z,39.9
2023-02-14T19:44:40.494Z,42.4
2023-02-14T19:48:41.050Z,50.8
2023-02-14T19:52:40.593Z,55.5
2023-02-14T19:56:40.292Z,53.2
2023-02-14T20:00:40.704Z,70.33
2023-02-14T20:04:40.477Z,65.93
2023-02-14T20:08:40.523Z,75.87
2023-02-14T20:12:40.380Z,76.67
2023-02-14T20:16:40.388Z,72.37
2023-02-14T20:20:40.638Z,82
2023-02-14T20:24:40.327Z,78.73
2023-02-14T20:28:41.223Z,79.87
2023-02-14T20:32:40.715Z,75.9
2023-02-14T20:36:40.692Z,86.63
2023-02-14T20:40:40.520Z,77.6
2023-02-14T20:44:40.818Z,79.3
2023-02-14T20:48:40.548Z,76.5
2023-02-14T20:52:40.468Z,74.83
2023-02-14T20:56:40.324Z,75.5
2023-02-14T21:00:40.621Z,77.1
2023-02-14T21:04:40.712Z,76.8
2023-02-14T21:08:40.459Z,70.17
2023-02-14T21:12:41.081Z,71.37
2023-02-14T21:16:40.499Z,74.17
2023-02-14T21:20:40.583Z,64.03
2023-02-14T21:24:40.440Z,68.3
2023-02-14T21:28:40.458Z,72.9
2023-02-14T21:32:41.275Z,70.2
2023-02-14T21:36:40.532Z,59.7
2023-02-14T21:40:40.657Z,63.6
2023-02-14T21:44:40.481Z,60.97
2023-02-14T21:48:40.781Z,66.87
2023-02-14T21:52:40.325Z,64.87
2023-02-14T21:56:40.673Z,66.63
2023-02-14T22:00:40.507Z,75.27
2023-02-14T22:04:40.766Z,72.23
2023-02-14T22:08:40.526Z,67.1
2023-02-14T22:12:40.572Z,70.7
2023-02-14T22:16:40.512Z,67.43
2023-02-14T22:20:40.517Z,67.27
2023-02-14T22:24:40.535Z,69.6
2023-02-14T22:28:40.561Z,70.7
2023-02-14T22:32:40.585Z,77.77
2023-02-14T22:36:40.681Z,82.3
2023-02-14T22:40:40.745Z,77.63
2023-02-14T22:44:40.294Z,75.97
2023-02-14T22:48:40.479Z,67.87
2023-02-14T22:52:40.588Z,72.87
2023-02-14T22:56:41.008Z,72.97
2023-02-14T23:00:40.565Z,81.33
2023-02-14T23:04:40.436Z,77.37
2023-02-14T23:08:40.538Z,95.43
2023-02-14T23:12:40.643Z,90.7
2023-02-14T23:16:40.654Z,89.5
2023-02-14T23:20:40.611Z,77.63
2023-02-14T23:24:40.659Z,81.73
2023-02-14T23:28:40.471Z,94.87
2023-02-14T23:32:41.244Z,97.17
2023-02-14T23:36:40.659Z,82.83
2023-02-14T23:40:40.522Z,92.07
2023-02-14T23:44:39.293Z,97.5
2023-02-14T23:48:40.468Z,67.33
2023-02-14T23:52:40.441Z,80.1
2023-02-14T23:56:39.986Z,74.13
